Hauptseite
METAR-TAF:

METAR-TAF

Flughäfen :

Flughafen Kiel

Kiel, Deutschland

Breite: 54-23N, Länge: 010-10E, Höhe: 31 m

Beobachtung

Neuester Wetterbericht von vor 13 Stunden und 37 Minuten, um 14:50 UTC
Wind 8 kt aus Südwest
Temperatur 14°C
Luftfeuchtigkeit 82%
Luftdruck 1025 hPa
Sichtweite: 7000 m
Aufgelockert bewölkt in der Höhe von 1900 ft
Durchbrochene Bewölkung in der Höhe von 3500 ft

METAR: EDHK 211450Z 23008KT 7000 SCT019 BKN035 14/11 Q1025

Zeit: 06:27 (04:27 UTC)

Prognose

Neuester Wetterbericht von vor 14 Stunden und 27 Minuten, um 14:00 UTC
Gültige Prognose vom 21 um 15 UTC bis 21 um 18 UTC
Wind 7 kt aus Südwest
Sichtweite: 7000 m
Durchbrochene Bewölkung in der Höhe von 1400 ft
Übergehend zu
vom 21 um 15 UTC bis 21 um 17 UTC
Durchbrochene Bewölkung in der Höhe von 3000 ft

TAF: EDHK 211400Z 2115/2118 23007KT 7000 BKN014 BECMG 2115/2117 BKN030

Wetterbeobachtungen und Prognosen von mehr als 4000 Flughäfen (METAR und TAF Bericht).

Die verfügbaren Stationen werden durch gelbe und rote Markierungen auf der Karte dargestellt.

Führen Sie die Maus auf sie, um den Namen der Station zu sehen.

Darauf klicken, um die Beobachtung von Wetterbeobachtungen und Prognosen zu sehen.

Um die Karte zu ändern : klicken Sie auf den grünen Tasten mit einem schwarzen Kreuz Zum Vergrößern, auf den grünen Button mit einem Gedankenstrich zu verkleinern, oder auf die grünen Pfeile für benachbarte Karten.


METAR-TAF: